Alford, Florida
Current Conditions -  °F | °C
As of 11:53 AM on Wednesday 28 Jan 2015 (Local Time) from KMAI Reporting Station
Clear Clear  
Wind Chill: 51°   Ceiling: Unl
Heat Index: 51°   Visibility: 10mi
Dew Point: 32°   Wind: 6mph
Humidity: 48%   Direction: 360°N
Pressure: 30.26"   Gusts: NA
Location:  30.69°N, 85.39°W
Report Text: KMAI 281753Z AUTO 36005KT 10SM CLR 11/00 A3026 RMK AO2 SLP248 60000 T01060000 10111 20000 58009
Loading
Personal Weather Stations






























Interactive Weather Map New forecast layout! Learn more

10-Day Weather Forecast

Advertisements
Track Severe Weather on mobile